Time;durP1;ratioP1;P1;durP2;ratioP2;P2;SDS_P1;SDS_P2;PMS_P1;PMS_P2;Temp;Humidity;BMP_temperature;BMP_pressure;BME280_temperature;BME280_humidity;BME280_pressure;Samples;Min_cycle;Max_cycle;Signal;HPM_P1;HPM_P2
2022/05/30 00:01:19;;;;;;;0.20;0.20;;;15.00;60.20;;;;;;5072772;28;20047;-69
2022/05/30 00:03:45;;;;;;;1.25;0.17;;;15.00;60.30;;;;;;5072984;28;20054;-69
2022/05/30 00:06:14;;;;;;;0.17;0.15;;;15.00;60.40;;;;;;5072994;28;20119;-68
2022/05/30 00:08:40;;;;;;;0.68;0.17;;;15.00;60.40;;;;;;5079265;28;20040;-68
2022/05/30 00:11:09;;;;;;;0.20;0.20;;;15.00;60.50;;;;;;5079239;28;20036;-68
2022/05/30 00:13:35;;;;;;;1.25;0.10;;;15.00;60.60;;;;;;5079576;28;20041;-68
2022/05/30 00:16:11;;;;;;;0.10;0.10;;;15.00;60.70;;;;;;5079523;28;20580;-69
2022/05/30 00:18:36;;;;;;;1.05;0.20;;;15.00;61.00;;;;;;5079138;28;20024;-68
2022/05/30 00:21:03;;;;;;;0.47;0.20;;;15.00;60.70;;;;;;5078934;28;20106;-67
2022/05/30 00:23:29;;;;;;;3.60;0.22;;;15.00;60.60;;;;;;5079148;28;20036;-68
2022/05/30 00:25:54;;;;;;;0.22;0.10;;;15.00;60.50;;;;;;5079346;28;20029;-68
2022/05/30 00:28:21;;;;;;;0.20;0.10;;;15.00;60.40;;;;;;5079351;28;20028;-69
2022/05/30 00:30:47;;;;;;;0.05;0.05;;;15.00;60.30;;;;;;5079296;28;20094;-68
2022/05/30 00:33:14;;;;;;;0.98;0.20;;;15.10;60.40;;;;;;5079254;28;20119;-68
2022/05/30 00:35:40;;;;;;;0.20;0.20;;;15.00;60.50;;;;;;5079046;28;20032;-68
2022/05/30 00:38:06;;;;;;;0.47;0.10;;;15.00;60.60;;;;;;5079239;28;20036;-68
2022/05/30 00:40:33;;;;;;;1.35;0.63;;;15.00;60.50;;;;;;5079438;28;20032;-68
2022/05/30 00:43:17;;;;;;;0.20;0.13;;;15.00;60.50;;;;;;5079361;28;20131;-68
2022/05/30 00:45:43;;;;;;;0.43;0.20;;;15.00;60.60;;;;;;5079247;28;20040;-67
2022/05/30 00:48:09;;;;;;;0.57;0.20;;;15.00;60.80;;;;;;5079196;28;20485;-67
2022/05/30 00:50:37;;;;;;;3.50;0.20;;;15.00;60.70;;;;;;5079141;28;20036;-68
2022/05/30 00:53:02;;;;;;;0.43;0.10;;;15.00;60.60;;;;;;5079273;28;20508;-68
2022/05/30 00:55:28;;;;;;;0.10;0.10;;;15.00;60.50;;;;;;5079044;28;20033;-68
2022/05/30 00:57:56;;;;;;;1.08;0.20;;;15.00;60.70;;;;;;5077734;28;20040;-68
2022/05/30 01:00:25;;;;;;;2.15;0.20;;;15.00;61.00;;;;;;5076440;28;20111;-68
2022/05/30 01:08:23;;;;;;;0.10;0.10;;;15.00;61.40;;;;;;5079264;28;20035;-68
2022/05/30 01:10:49;;;;;;;0.15;0.13;;;15.10;61.60;;;;;;5078803;28;20067;-68
2022/05/30 01:13:15;;;;;;;0.60;0.17;;;15.00;61.70;;;;;;5078827;28;20032;-68
2022/05/30 01:15:41;;;;;;;0.70;0.10;;;15.00;61.50;;;;;;5079064;28;20036;-68
2022/05/30 01:18:40;;;;;;;3.03;0.15;;;15.10;61.60;;;;;;5078369;28;20093;-68
2022/05/30 01:21:42;;;;;;;1.45;0.10;;;15.10;61.20;;;;;;5067333;28;20084;-67
2022/05/30 01:24:36;;;;;;;0.17;0.10;;;15.00;60.90;;;;;;5075502;28;20495;-68
2022/05/30 01:27:32;;;;;;;0.13;0.10;;;15.10;61.00;;;;;;5075464;28;20047;-68
2022/05/30 01:30:24;;;;;;;0.10;0.10;;;15.10;61.30;;;;;;5075406;28;20028;-68
2022/05/30 01:32:50;;;;;;;0.10;0.10;;;15.00;61.30;;;;;;5073391;28;20041;-68
2022/05/30 01:35:23;;;;;;;0.52;0.10;;;15.00;61.60;;;;;;5075196;28;20039;-67
2022/05/30 01:37:49;;;;;;;0.52;0.10;;;15.10;61.70;;;;;;5074967;28;20094;-68
2022/05/30 01:40:14;;;;;;;0.20;0.10;;;15.10;61.60;;;;;;5075293;28;20060;-68
2022/05/30 01:42:40;;;;;;;0.32;0.10;;;15.10;61.70;;;;;;5074320;28;20476;-68
2022/05/30 01:45:06;;;;;;;1.98;0.20;;;15.10;62.10;;;;;;5074744;28;20056;-68
2022/05/30 01:47:33;;;;;;;0.10;0.10;;;15.10;62.40;;;;;;5075122;28;20032;-68
2022/05/30 01:49:59;;;;;;;0.25;0.15;;;15.10;62.50;;;;;;5075334;28;20028;-67
2022/05/30 01:52:25;;;;;;;1.15;0.20;;;15.10;62.30;;;;;;5075019;28;20044;-67
2022/05/30 01:54:51;;;;;;;1.25;0.20;;;15.10;61.90;;;;;;5075213;28;20481;-68
2022/05/30 01:57:16;;;;;;;0.35;0.10;;;15.10;62.10;;;;;;5075115;28;20036;-67
2022/05/30 01:59:42;;;;;;;0.20;0.10;;;15.10;62.00;;;;;;5075067;28;20036;-69
2022/05/30 02:02:09;;;;;;;2.30;0.20;;;15.10;61.90;;;;;;5074941;28;20032;-68
2022/05/30 02:04:34;;;;;;;0.13;0.10;;;15.10;62.40;;;;;;5074600;28;20484;-68
2022/05/30 02:07:00;;;;;;;0.10;0.10;;;15.10;62.60;;;;;;5074887;28;20036;-67
2022/05/30 02:09:26;;;;;;;0.52;0.10;;;15.10;62.70;;;;;;5074726;28;20037;-68
2022/05/30 02:11:51;;;;;;;0.10;0.10;;;15.00;62.80;;;;;;5074789;28;20044;-68
2022/05/30 02:14:17;;;;;;;2.47;0.20;;;15.10;62.30;;;;;;5074810;28;20063;-68
2022/05/30 02:17:01;;;;;;;0.10;0.10;;;15.10;62.00;;;;;;5074529;28;20083;-68
2022/05/30 02:19:39;;;;;;;3.65;0.30;;;15.10;61.80;;;;;;5074256;28;20501;-68
2022/05/30 02:22:07;;;;;;;1.40;0.30;;;15.10;61.80;;;;;;5074434;28;20456;-68
2022/05/30 02:24:33;;;;;;;0.20;0.20;;;15.10;61.80;;;;;;5074673;28;20036;-68
2022/05/30 02:26:58;;;;;;;0.20;0.20;;;15.10;62.10;;;;;;5074423;28;20028;-68
2022/05/30 02:29:24;;;;;;;1.08;0.00;;;15.10;62.10;;;;;;5074438;28;20029;-67
2022/05/30 02:31:50;;;;;;;0.65;0.10;;;15.10;61.90;;;;;;5074256;28;20389;-68
2022/05/30 02:37:00;;;;;;;0.73;0.10;;;15.10;62.70;;;;;;5074433;28;20032;-68
2022/05/30 02:39:28;;;;;;;0.30;0.10;;;15.00;62.30;;;;;;5074095;28;20036;-68
2022/05/30 02:41:54;;;;;;;0.50;0.10;;;15.10;62.20;;;;;;5074332;28;20444;-68
2022/05/30 02:44:22;;;;;;;0.10;0.10;;;15.00;62.20;;;;;;5074166;28;20409;-68
2022/05/30 02:46:50;;;;;;;0.28;0.10;;;15.00;62.50;;;;;;5074245;28;20066;-68
2022/05/30 02:49:16;;;;;;;4.50;0.17;;;15.00;62.60;;;;;;5074134;28;20054;-68
2022/05/30 02:51:42;;;;;;;0.50;0.10;;;15.00;62.40;;;;;;5073954;28;20033;-68
2022/05/30 02:54:09;;;;;;;0.30;0.13;;;15.00;62.40;;;;;;5074058;28;20032;-68
2022/05/30 02:56:35;;;;;;;0.20;0.10;;;15.00;62.20;;;;;;5073818;28;20087;-68
2022/05/30 02:59:02;;;;;;;0.20;0.20;;;15.00;62.10;;;;;;5073851;28;20036;-68
2022/05/30 03:01:31;;;;;;;0.13;0.10;;;14.90;62.20;;;;;;5073793;28;20039;-68
2022/05/30 03:04:01;;;;;;;1.15;0.63;;;14.90;62.00;;;;;;5073511;28;20036;-68
2022/05/30 03:06:29;;;;;;;0.55;0.30;;;14.90;62.60;;;;;;5074021;28;20079;-68
2022/05/30 03:08:56;;;;;;;0.75;0.20;;;14.90;62.30;;;;;;5073697;28;20036;-68
2022/05/30 03:11:22;;;;;;;0.20;0.15;;;14.90;62.10;;;;;;5073568;28;20039;-68
2022/05/30 03:13:48;;;;;;;0.10;0.00;;;14.90;62.20;;;;;;5073619;28;20042;-68
2022/05/30 03:16:14;;;;;;;0.10;0.10;;;14.90;62.00;;;;;;5073361;28;20111;-68
2022/05/30 03:18:40;;;;;;;0.70;0.20;;;14.90;62.40;;;;;;5073682;28;20118;-68
2022/05/30 03:21:06;;;;;;;0.28;0.20;;;14.90;62.80;;;;;;5073217;28;20098;-69
2022/05/30 03:23:32;;;;;;;0.15;0.15;;;14.90;62.20;;;;;;5073441;28;20481;-69
2022/05/30 03:25:58;;;;;;;0.30;0.20;;;15.00;62.20;;;;;;5073470;28;20048;-69
2022/05/30 03:28:23;;;;;;;0.52;0.17;;;14.90;62.10;;;;;;5073256;28;20465;-68
2022/05/30 03:30:49;;;;;;;0.20;0.17;;;15.00;62.50;;;;;;5073265;28;20477;-68
2022/05/30 03:33:15;;;;;;;0.98;0.10;;;14.90;62.50;;;;;;5073283;28;20484;-68
2022/05/30 03:35:40;;;;;;;2.17;0.30;;;15.00;62.50;;;;;;5072976;28;20029;-68
2022/05/30 03:38:07;;;;;;;0.25;0.20;;;15.00;62.50;;;;;;5073283;28;20036;-69
2022/05/30 03:40:36;;;;;;;0.60;0.20;;;15.00;63.10;;;;;;5072968;28;20063;-69
2022/05/30 03:43:07;;;;;;;3.15;0.28;;;15.00;63.00;;;;;;5072490;28;20131;-68
2022/05/30 03:45:34;;;;;;;0.90;0.20;;;15.00;63.10;;;;;;5072912;28;20037;-68
2022/05/30 03:47:59;;;;;;;0.55;0.20;;;15.00;63.30;;;;;;5073058;28;20045;-68
2022/05/30 03:50:25;;;;;;;0.32;0.10;;;15.00;63.50;;;;;;5073011;28;20120;-68
2022/05/30 03:52:51;;;;;;;0.80;0.20;;;15.00;63.30;;;;;;5072986;28;20401;-68
2022/05/30 03:55:19;;;;;;;2.78;0.25;;;15.00;63.40;;;;;;5072982;28;20033;-68
2022/05/30 03:57:45;;;;;;;3.92;0.30;;;15.00;63.30;;;;;;5072811;28;20392;-69
2022/05/30 04:00:18;;;;;;;1.60;0.20;;;15.00;63.80;;;;;;5072642;28;20058;-69
2022/05/30 04:02:47;;;;;;;0.47;0.20;;;15.00;64.10;;;;;;5072755;28;20384;-68
2022/05/30 04:05:14;;;;;;;0.25;0.10;;;15.00;63.90;;;;;;5073074;28;20071;-69
2022/05/30 04:07:40;;;;;;;4.05;0.20;;;15.00;63.80;;;;;;5073197;28;20029;-69
2022/05/30 04:10:06;;;;;;;1.52;0.40;;;15.00;63.80;;;;;;5072931;28;20401;-68
2022/05/30 04:12:32;;;;;;;0.32;0.20;;;15.00;64.50;;;;;;5072732;28;20098;-68
2022/05/30 04:14:59;;;;;;;1.33;0.40;;;15.00;64.20;;;;;;5072884;28;20037;-68
2022/05/30 04:17:26;;;;;;;0.25;0.20;;;15.00;63.60;;;;;;5072927;28;20047;-68
2022/05/30 04:19:52;;;;;;;0.13;0.10;;;15.10;63.30;;;;;;5072478;28;20132;-68
2022/05/30 04:22:19;;;;;;;1.10;0.20;;;15.10;63.20;;;;;;5072738;28;20103;-68
2022/05/30 04:24:44;;;;;;;0.65;0.10;;;15.00;63.50;;;;;;5072595;28;20485;-69
2022/05/30 04:27:11;;;;;;;0.77;0.20;;;15.10;64.50;;;;;;5072658;28;20035;-69
2022/05/30 04:29:37;;;;;;;0.32;0.15;;;15.10;64.40;;;;;;5072683;28;20024;-68
2022/05/30 04:32:04;;;;;;;0.20;0.20;;;15.10;63.90;;;;;;5072733;28;20397;-68
2022/05/30 04:34:30;;;;;;;0.98;0.28;;;15.20;63.60;;;;;;5072505;28;20099;-68
2022/05/30 04:36:56;;;;;;;6.13;0.35;;;15.20;63.60;;;;;;5072329;28;20116;-69
2022/05/30 04:39:22;;;;;;;2.50;0.13;;;15.20;63.30;;;;;;5072276;28;20140;-69
2022/05/30 04:41:48;;;;;;;0.55;0.38;;;15.20;63.00;;;;;;5072303;28;20041;-68
2022/05/30 04:44:14;;;;;;;0.57;0.13;;;15.20;62.90;;;;;;5072489;28;20052;-68
2022/05/30 04:46:39;;;;;;;0.35;0.25;;;15.20;62.60;;;;;;5072058;28;20539;-68
2022/05/30 04:49:05;;;;;;;0.82;0.28;;;15.20;62.80;;;;;;5072419;28;20041;-68
2022/05/30 04:51:31;;;;;;;0.50;0.30;;;15.20;62.90;;;;;;5072537;28;20036;-69
2022/05/30 04:53:57;;;;;;;0.85;0.10;;;15.20;62.80;;;;;;5072908;28;20037;-68
2022/05/30 04:56:23;;;;;;;0.50;0.15;;;15.20;63.30;;;;;;5076064;28;20028;-68
2022/05/30 04:58:50;;;;;;;0.95;0.30;;;15.20;63.50;;;;;;5076040;28;20478;-68
2022/05/30 05:01:17;;;;;;;1.55;0.20;;;15.20;63.90;;;;;;5076174;28;20396;-68
2022/05/30 05:03:44;;;;;;;0.50;0.30;;;15.20;63.70;;;;;;5075958;28;20048;-68
2022/05/30 05:06:16;;;;;;;2.20;0.30;;;15.20;64.20;;;;;;5075941;28;20101;-70
2022/05/30 05:08:51;;;;;;;1.42;0.20;;;15.20;64.20;;;;;;5075698;28;20037;-68
2022/05/30 05:11:21;;;;;;;0.68;0.20;;;15.20;64.30;;;;;;5075515;28;20043;-68
2022/05/30 05:13:47;;;;;;;0.20;0.20;;;15.10;64.30;;;;;;5075590;28;20033;-69
2022/05/30 05:16:14;;;;;;;1.75;0.28;;;15.10;64.50;;;;;;5075731;28;20028;-68
2022/05/30 05:18:40;;;;;;;0.45;0.25;;;15.10;64.50;;;;;;5075660;28;20400;-68
2022/05/30 05:21:06;;;;;;;0.20;0.20;;;15.10;64.90;;;;;;5075282;28;20127;-68
2022/05/30 05:23:32;;;;;;;0.45;0.20;;;15.10;65.40;;;;;;5074902;28;20052;-68
2022/05/30 05:26:00;;;;;;;0.13;0.13;;;15.10;64.90;;;;;;5075447;28;20067;-68
2022/05/30 05:28:27;;;;;;;2.20;0.20;;;15.10;64.90;;;;;;5075462;28;20041;-68
2022/05/30 05:30:52;;;;;;;0.55;0.20;;;15.10;65.10;;;;;;5074447;28;20079;-68
2022/05/30 05:33:18;;;;;;;1.38;0.20;;;15.10;65.40;;;;;;5074229;28;20032;-67
2022/05/30 05:35:45;;;;;;;0.90;0.30;;;15.20;65.70;;;;;;5075653;28;20062;-68
2022/05/30 05:38:12;;;;;;;1.67;0.30;;;15.20;65.60;;;;;;5075416;28;20604;-68
2022/05/30 05:40:39;;;;;;;3.05;0.35;;;15.20;65.40;;;;;;5075218;28;20037;-68
2022/05/30 05:43:05;;;;;;;0.52;0.10;;;15.20;65.10;;;;;;5074492;28;20059;-68
2022/05/30 05:45:35;;;;;;;3.35;0.28;;;15.20;65.00;;;;;;5074130;28;20032;-67
2022/05/30 05:48:01;;;;;;;2.85;0.40;;;15.20;64.10;;;;;;5074132;28;20119;-67
2022/05/30 05:50:26;;;;;;;0.75;0.35;;;15.20;64.10;;;;;;5074331;28;20060;-68
2022/05/30 05:52:53;;;;;;;0.35;0.20;;;15.20;64.30;;;;;;5074273;28;20056;-68
2022/05/30 05:55:20;;;;;;;0.68;0.20;;;15.20;64.60;;;;;;5073129;28;20037;-68
2022/05/30 05:57:47;;;;;;;3.53;0.20;;;15.30;64.90;;;;;;5074620;28;20455;-68
2022/05/30 06:00:14;;;;;;;2.10;0.30;;;15.30;65.20;;;;;;5074758;28;20036;-67
2022/05/30 06:02:40;;;;;;;1.17;0.65;;;15.30;65.40;;;;;;5074594;28;20028;-67
2022/05/30 06:05:08;;;;;;;0.95;0.20;;;15.30;65.50;;;;;;5073584;28;20140;-67
2022/05/30 06:07:39;;;;;;;2.53;0.28;;;15.30;65.70;;;;;;5074047;28;20493;-67
2022/05/30 06:10:06;;;;;;;0.80;0.35;;;15.30;67.30;;;;;;5073763;28;20036;-69
2022/05/30 06:12:42;;;;;;;4.15;0.52;;;15.30;67.90;;;;;;5074301;28;20024;-68
2022/05/30 06:15:10;;;;;;;0.47;0.30;;;15.30;69.50;;;;;;5074340;28;20041;-68
2022/05/30 06:17:41;;;;;;;1.33;0.30;;;15.30;69.50;;;;;;5074219;28;20037;-67
2022/05/30 06:20:08;;;;;;;2.60;0.40;;;15.30;69.70;;;;;;5073521;28;20056;-67
2022/05/30 06:22:34;;;;;;;0.88;0.40;;;15.30;69.40;;;;;;5073512;28;20504;-67
2022/05/30 06:25:00;;;;;;;0.43;0.30;;;15.30;69.30;;;;;;5073671;28;20062;-67
2022/05/30 06:27:25;;;;;;;3.85;0.47;;;15.30;69.20;;;;;;5073700;28;20400;-67
2022/05/30 06:29:51;;;;;;;5.57;0.50;;;15.30;69.60;;;;;;5072532;28;20500;-67
2022/05/30 06:32:17;;;;;;;0.20;0.20;;;15.30;70.50;;;;;;5074242;28;20175;-67
2022/05/30 06:34:43;;;;;;;0.75;0.30;;;15.30;69.90;;;;;;5043947;28;20390;-67
2022/05/30 06:37:10;;;;;;;0.47;0.30;;;15.30;71.00;;;;;;5073724;28;20389;-67
2022/05/30 06:39:37;;;;;;;1.58;0.30;;;15.30;70.70;;;;;;5073942;28;20048;-66
2022/05/30 06:42:04;;;;;;;1.92;0.30;;;15.30;70.00;;;;;;5073896;28;20036;-66
2022/05/30 06:44:31;;;;;;;1.48;0.40;;;15.40;70.40;;;;;;5073507;28;20397;-67
2022/05/30 06:46:57;;;;;;;0.90;0.32;;;15.40;70.20;;;;;;5073521;28;20033;-67
2022/05/30 06:49:23;;;;;;;1.10;0.40;;;15.40;71.20;;;;;;5073146;28;20158;-67
2022/05/30 06:51:49;;;;;;;0.47;0.28;;;15.50;71.10;;;;;;5073363;28;20381;-67
2022/05/30 06:54:15;;;;;;;3.95;0.40;;;15.60;71.20;;;;;;5073057;28;20032;-67
2022/05/30 06:59:28;;;;;;;0.98;0.20;;;15.70;70.00;;;;;;5052573;28;20041;-68
2022/05/30 07:01:54;;;;;;;0.55;0.20;;;15.80;70.10;;;;;;5074210;28;20519;-68
2022/05/30 07:04:20;;;;;;;1.25;0.30;;;15.80;69.90;;;;;;5073748;28;20072;-68
2022/05/30 07:06:45;;;;;;;0.93;0.17;;;15.90;69.10;;;;;;5073609;28;20489;-67
2022/05/30 07:09:12;;;;;;;1.00;0.30;;;16.00;68.40;;;;;;5073666;28;20033;-67
2022/05/30 07:11:39;;;;;;;3.13;0.30;;;16.00;68.40;;;;;;5073365;28;20500;-67
2022/05/30 07:14:12;;;;;;;1.33;0.30;;;16.10;68.00;;;;;;5073325;28;20037;-66
2022/05/30 07:16:39;;;;;;;0.45;0.30;;;16.20;67.90;;;;;;5072676;28;20035;-67
2022/05/30 07:19:07;;;;;;;1.08;0.30;;;16.30;66.80;;;;;;5073012;28;20119;-67
2022/05/30 07:21:33;;;;;;;0.40;0.20;;;16.30;66.70;;;;;;5073176;28;20055;-67
2022/05/30 07:23:58;;;;;;;0.43;0.20;;;16.30;66.50;;;;;;5073169;28;20405;-67
2022/05/30 07:26:24;;;;;;;0.40;0.30;;;16.30;66.30;;;;;;5073114;28;20029;-67
2022/05/30 07:28:53;;;;;;;0.93;0.30;;;16.30;66.60;;;;;;5073359;28;20036;-67
2022/05/30 07:31:25;;;;;;;0.30;0.30;;;16.30;65.70;;;;;;5072865;28;20480;-67
2022/05/30 07:33:51;;;;;;;0.20;0.20;;;16.30;65.70;;;;;;5073131;28;20508;-67
2022/05/30 07:36:21;;;;;;;2.40;0.32;;;16.40;65.10;;;;;;5070954;28;20399;-68
2022/05/30 07:38:47;;;;;;;0.45;0.17;;;16.40;65.10;;;;;;5070207;28;20473;-68
2022/05/30 07:41:14;;;;;;;0.80;0.30;;;16.50;66.20;;;;;;5070621;28;20032;-68
2022/05/30 07:43:40;;;;;;;0.45;0.17;;;16.70;65.60;;;;;;5072663;28;20043;-67
2022/05/30 07:46:08;;;;;;;0.47;0.20;;;16.80;64.20;;;;;;5072914;28;20453;-67
2022/05/30 07:48:35;;;;;;;0.50;0.30;;;16.80;63.90;;;;;;5073022;28;20078;-67
2022/05/30 07:51:02;;;;;;;3.53;0.68;;;16.90;64.20;;;;;;5072768;28;20036;-67
2022/05/30 07:53:28;;;;;;;4.95;0.55;;;16.90;62.90;;;;;;5072737;28;20509;-67
2022/05/30 07:55:54;;;;;;;1.70;0.70;;;16.90;62.90;;;;;;5072740;28;20029;-68
2022/05/30 07:58:20;;;;;;;1.55;0.65;;;16.90;62.70;;;;;;5071165;28;20036;-68
2022/05/30 08:00:49;;;;;;;1.23;0.60;;;16.90;63.90;;;;;;5070153;28;20029;-67
2022/05/30 08:03:16;;;;;;;1.25;0.50;;;17.00;63.30;;;;;;5070581;28;20550;-68
2022/05/30 08:05:47;;;;;;;2.28;0.52;;;17.10;63.90;;;;;;5073085;28;20044;-68
2022/05/30 08:08:16;;;;;;;1.40;0.50;;;17.20;63.20;;;;;;5072845;28;20032;-68
2022/05/30 08:10:42;;;;;;;1.05;0.40;;;17.30;62.30;;;;;;5072808;28;20036;-68
2022/05/30 08:13:08;;;;;;;1.02;0.43;;;17.40;62.50;;;;;;5072833;28;20033;-68
2022/05/30 08:15:33;;;;;;;2.92;0.40;;;17.50;61.60;;;;;;5072831;28;20107;-68
2022/05/30 08:18:00;;;;;;;0.30;0.20;;;17.60;62.70;;;;;;5054592;28;20046;-68
2022/05/30 08:20:28;;;;;;;0.70;0.28;;;17.70;62.60;;;;;;5072405;28;20115;-68
2022/05/30 08:22:55;;;;;;;0.80;0.30;;;17.80;62.30;;;;;;5072500;28;20037;-69
2022/05/30 08:25:21;;;;;;;1.10;0.13;;;18.00;61.90;;;;;;5073024;28;20040;-68
2022/05/30 08:27:47;;;;;;;0.63;0.30;;;18.00;60.50;;;;;;5072762;28;20107;-68
2022/05/30 08:30:17;;;;;;;3.80;0.30;;;18.10;59.40;;;;;;5074358;28;20037;-69
2022/05/30 08:32:45;;;;;;;1.75;0.20;;;18.30;60.60;;;;;;5075391;28;20122;-69
2022/05/30 08:35:14;;;;;;;0.28;0.17;;;18.30;58.80;;;;;;5074988;28;20037;-68
2022/05/30 08:37:41;;;;;;;0.15;0.10;;;18.30;57.50;;;;;;5076358;28;20040;-68
2022/05/30 08:42:56;;;;;;;2.67;0.35;;;18.30;57.90;;;;;;5075093;28;20035;-68
2022/05/30 08:45:23;;;;;;;1.63;0.40;;;18.30;57.30;;;;;;5075614;28;20040;-68
2022/05/30 08:47:54;;;;;;;0.68;0.30;;;18.30;57.90;;;;;;5075414;28;20079;-69
2022/05/30 08:50:30;;;;;;;0.55;0.28;;;18.20;57.70;;;;;;5075203;28;20445;-68
2022/05/30 08:53:01;;;;;;;3.30;0.40;;;18.30;57.50;;;;;;5075653;28;20402;-68
2022/05/30 08:55:38;;;;;;;1.27;0.40;;;18.30;58.10;;;;;;5062963;28;20108;-71
2022/05/30 08:58:15;;;;;;;0.55;0.40;;;18.30;58.00;;;;;;5061994;28;20088;-66
2022/05/30 09:00:49;;;;;;;0.65;0.30;;;18.40;58.70;;;;;;5074137;28;20033;-65
2022/05/30 09:03:35;;;;;;;1.42;0.20;;;18.40;57.10;;;;;;5060013;28;20558;-65
2022/05/30 09:06:23;;;;;;;0.88;0.20;;;18.40;56.80;;;;;;5075514;28;20040;-66
2022/05/30 09:08:54;;;;;;;2.90;0.20;;;18.50;56.90;;;;;;5063408;28;20514;-63
2022/05/30 09:11:44;;;;;;;0.60;0.35;;;18.50;57.10;;;;;;5055601;28;20071;-66
2022/05/30 09:14:16;;;;;;;0.77;0.30;;;18.60;56.70;;;;;;5074710;28;20094;-66
2022/05/30 09:16:48;;;;;;;0.40;0.20;;;18.70;56.70;;;;;;5075300;28;20039;-67
2022/05/30 09:19:15;;;;;;;;;;;18.80;56.60;;;;;;5075065;28;20064;-66
2022/05/30 09:21:41;;;;;;;1.85;0.20;;;18.90;56.10;;;;;;5075272;28;19905;-71
2022/05/30 09:24:07;;;;;;;3.70;0.30;;;19.00;56.50;;;;;;5074751;28;20400;-70
2022/05/30 09:26:36;;;;;;;1.20;0.30;;;19.10;56.60;;;;;;5075600;28;20024;-70
2022/05/30 09:29:33;;;;;;;0.10;0.10;;;19.20;56.80;;;;;;5075119;28;20536;-71
2022/05/30 09:32:19;;;;;;;0.10;0.10;;;19.30;56.60;;;;;;5072936;28;20032;-71
2022/05/30 09:34:49;;;;;;;2.25;0.20;;;19.50;57.20;;;;;;5074756;28;20036;-71
2022/05/30 09:37:31;;;;;;;0.57;0.20;;;19.60;56.30;;;;;;5074599;28;20112;-70
2022/05/30 09:39:58;;;;;;;0.45;0.20;;;19.70;55.40;;;;;;5073075;28;20028;-71
2022/05/30 09:42:31;;;;;;;0.50;0.30;;;19.70;54.70;;;;;;5073414;28;20033;-72
2022/05/30 09:45:07;;;;;;;2.45;0.30;;;19.80;55.20;;;;;;5074487;28;20040;-71
2022/05/30 09:47:34;;;;;;;0.80;0.40;;;19.80;55.80;;;;;;5074536;28;20430;-71
2022/05/30 09:50:18;;;;;;;1.05;0.28;;;19.90;55.30;;;;;;5074712;28;20041;-72
2022/05/30 09:52:45;;;;;;;2.65;0.40;;;20.00;55.00;;;;;;5074956;28;20040;-72
2022/05/30 09:55:35;;;;;;;0.70;0.20;;;20.10;55.00;;;;;;5071727;28;20032;-72
2022/05/30 09:58:03;;;;;;;0.38;0.20;;;20.10;53.90;;;;;;5065976;28;20083;-71
2022/05/30 10:00:40;;;;;;;2.20;0.20;;;20.10;54.10;;;;;;5074495;28;20512;-72
2022/05/30 10:03:26;;;;;;;1.15;0.30;;;20.10;53.70;;;;;;5073097;28;20029;-72
2022/05/30 10:06:13;;;;;;;4.93;0.30;;;20.10;53.10;;;;;;5073384;28;20044;-72
2022/05/30 10:08:39;;;;;;;0.50;0.30;;;20.00;53.30;;;;;;5071974;28;20035;-71
2022/05/30 10:11:05;;;;;;;2.70;0.30;;;20.00;53.60;;;;;;5074832;28;20043;-71
2022/05/30 10:13:35;;;;;;;3.78;0.22;;;20.00;53.40;;;;;;5074817;28;20041;-70
2022/05/30 10:16:04;;;;;;;2.58;0.20;;;20.00;54.50;;;;;;5074323;28;20037;-69
2022/05/30 10:18:34;;;;;;;0.80;0.20;;;20.00;53.80;;;;;;5074369;28;20047;-69
2022/05/30 10:28:14;;;;;;;0.20;0.15;;;20.00;53.80;;;;;;5073312;28;20045;-69
2022/05/30 10:30:32;;;;;;;0.20;0.10;;;19.90;53.10;;;;;;5074122;28;20071;-70
2022/05/30 10:33:50;;;;;;;1.45;0.25;;;19.80;54.50;;;;;;5074344;28;20460;-70
2022/05/30 10:36:44;;;;;;;0.57;0.50;;;19.80;54.50;;;;;;5031885;28;20033;-70
2022/05/30 10:39:18;;;;;;;3.15;0.28;;;19.70;54.80;;;;;;5031735;28;20387;-72
2022/05/30 10:42:18;;;;;;;0.10;0.10;;;19.70;55.20;;;;;;5063295;28;20155;-71
2022/05/30 10:44:50;;;;;;;0.40;0.22;;;19.70;54.80;;;;;;5071170;28;20044;-71
2022/05/30 10:47:40;;;;;;;3.30;0.30;;;19.70;55.40;;;;;;5074163;28;20075;-71
2022/05/30 10:50:06;;;;;;;1.83;0.68;;;19.80;55.20;;;;;;5073946;28;20044;-70
2022/05/30 10:52:41;;;;;;;0.20;0.20;;;19.80;54.60;;;;;;5073844;28;20115;-70
2022/05/30 10:55:20;;;;;;;1.48;0.25;;;19.80;54.70;;;;;;5073820;28;20068;-71
2022/05/30 10:57:59;;;;;;;0.40;0.30;;;19.80;54.50;;;;;;5073482;28;20040;-71
2022/05/30 11:00:33;;;;;;;1.17;0.40;;;19.80;54.80;;;;;;5072455;28;20029;-71
2022/05/30 11:03:24;;;;;;;0.30;0.30;;;19.80;55.10;;;;;;5071655;28;20024;-70
2022/05/30 11:06:15;;;;;;;4.80;0.50;;;19.70;55.10;;;;;;5071102;28;20036;-70
2022/05/30 11:09:02;;;;;;;0.50;0.30;;;19.80;55.80;;;;;;5077051;28;20079;-71
2022/05/30 11:11:48;;;;;;;0.43;0.30;;;19.70;55.20;;;;;;5073209;28;20036;-70
2022/05/30 11:14:53;;;;;;;0.40;0.25;;;19.80;55.60;;;;;;5055002;28;20473;-70
2022/05/30 11:17:27;;;;;;;1.10;0.30;;;19.90;55.70;;;;;;5071528;28;20155;-70
2022/05/30 11:20:18;;;;;;;0.95;0.20;;;20.00;55.30;;;;;;5072597;28;20048;-70
2022/05/30 11:22:46;;;;;;;1.48;0.50;;;20.00;55.60;;;;;;5070175;28;20060;-71
2022/05/30 11:25:15;;;;;;;2.60;0.40;;;20.00;55.70;;;;;;5072046;28;20106;-70
2022/05/30 11:28:28;;;;;;;2.15;0.32;;;20.00;55.60;;;;;;5071041;28;20029;-71
2022/05/30 11:31:29;;;;;;;0.50;0.28;;;20.10;56.10;;;;;;5068301;28;20497;-71
2022/05/30 11:34:17;;;;;;;4.40;0.30;;;20.10;56.30;;;;;;5036186;28;20106;-70
2022/05/30 11:36:52;;;;;;;0.32;0.28;;;20.20;56.40;;;;;;5072074;28;20029;-70
2022/05/30 11:39:41;;;;;;;2.47;0.20;;;20.30;56.60;;;;;;5072186;28;20393;-70
2022/05/30 11:42:22;;;;;;;4.68;0.40;;;20.30;55.50;;;;;;5072329;28;20036;-71
2022/05/30 11:44:59;;;;;;;3.97;0.90;;;20.40;55.00;;;;;;5072365;28;20123;-70
2022/05/30 11:47:42;;;;;;;1.83;0.30;;;20.50;55.50;;;;;;5072661;28;20457;-70
2022/05/30 11:50:23;;;;;;;1.45;0.50;;;20.60;54.70;;;;;;5071431;28;20044;-70
2022/05/30 11:53:21;;;;;;;1.63;0.35;;;20.60;54.40;;;;;;5072281;28;20039;-71
2022/05/30 11:56:14;;;;;;;4.18;0.30;;;20.60;53.80;;;;;;5072708;28;20042;-70
2022/05/30 11:58:58;;;;;;;1.25;0.40;;;20.60;54.10;;;;;;5066711;28;20040;-70
2022/05/30 12:01:27;;;;;;;0.82;0.30;;;20.60;54.10;;;;;;5071815;28;20071;-69
2022/05/30 12:04:10;;;;;;;4.28;0.45;;;20.50;54.10;;;;;;5071613;28;20040;-69
2022/05/30 12:06:55;;;;;;;1.35;0.30;;;20.50;54.60;;;;;;5072774;28;20396;-70
2022/05/30 12:09:52;;;;;;;0.50;0.30;;;20.60;55.00;;;;;;5052820;28;20044;-70
2022/05/30 12:12:56;;;;;;;0.57;0.30;;;20.60;54.80;;;;;;5034580;28;20394;-70
2022/05/30 12:15:46;;;;;;;1.70;0.50;;;20.60;54.40;;;;;;4980962;28;20047;-70
2022/05/30 12:24:15;;;;;;;1.75;0.28;;;20.70;54.20;;;;;;5052356;28;20409;-70
2022/05/30 12:26:56;;;;;;;1.40;0.20;;;20.70;54.30;;;;;;5052341;28;20033;-69
2022/05/30 12:29:42;;;;;;;4.50;0.40;;;20.70;55.10;;;;;;5051838;28;20041;-69
2022/05/30 12:32:32;;;;;;;1.20;0.32;;;20.70;54.50;;;;;;5038107;28;20111;-70
2022/05/30 12:35:01;;;;;;;3.75;0.35;;;20.70;54.50;;;;;;5052375;28;20029;-70
2022/05/30 12:37:44;;;;;;;1.17;0.40;;;20.60;54.90;;;;;;5052219;28;20401;-70
2022/05/30 12:40:19;;;;;;;2.83;0.40;;;20.60;54.80;;;;;;5052027;28;20039;-70
2022/05/30 12:42:45;;;;;;;5.00;0.50;;;20.50;54.80;;;;;;5051868;28;20033;-70
2022/05/30 12:45:20;;;;;;;0.55;0.30;;;20.50;54.70;;;;;;5051708;28;20048;-70
2022/05/30 12:47:53;;;;;;;2.17;0.47;;;20.40;55.30;;;;;;5052059;28;20033;-71
2022/05/30 12:50:32;;;;;;;2.30;0.30;;;20.40;55.50;;;;;;5051534;28;20577;-70
2022/05/30 12:53:00;;;;;;;1.80;0.50;;;20.40;55.10;;;;;;5051822;28;20433;-70
2022/05/30 12:55:40;;;;;;;2.13;0.20;;;20.40;55.50;;;;;;5051688;28;20044;-70
2022/05/30 12:58:08;;;;;;;2.10;0.55;;;20.40;55.50;;;;;;5051529;28;20493;-69
2022/05/30 13:00:39;;;;;;;2.30;0.40;;;20.30;55.90;;;;;;5051549;28;20033;-69
2022/05/30 13:03:31;;;;;;;0.28;0.20;;;20.30;56.30;;;;;;5051557;28;20040;-69
2022/05/30 13:06:13;;;;;;;5.05;0.70;;;20.30;56.10;;;;;;5051750;28;20037;-71
2022/05/30 13:08:56;;;;;;;0.73;0.30;;;20.40;56.00;;;;;;5051294;28;20040;-70
2022/05/30 13:11:32;;;;;;;1.80;0.30;;;20.40;56.40;;;;;;5051341;28;20547;-71
2022/05/30 13:14:10;;;;;;;0.60;0.40;;;20.40;56.00;;;;;;5050935;28;20029;-70
2022/05/30 13:16:42;;;;;;;0.45;0.30;;;20.40;56.10;;;;;;5054529;28;20033;-70
2022/05/30 13:19:14;;;;;;;0.50;0.30;;;20.40;55.80;;;;;;5055468;28;20099;-70
2022/05/30 13:21:42;;;;;;;0.63;0.50;;;20.40;56.10;;;;;;5055506;28;20535;-70
2022/05/30 13:24:31;;;;;;;1.05;0.75;;;20.40;56.00;;;;;;5083991;28;20044;-70
2022/05/30 13:26:57;;;;;;;4.55;0.40;;;20.40;56.30;;;;;;5094945;28;20408;-70
2022/05/30 13:29:34;;;;;;;2.80;0.40;;;20.40;56.40;;;;;;5095229;28;20076;-69
2022/05/30 13:32:00;;;;;;;0.32;0.30;;;20.50;56.00;;;;;;5095085;28;20028;-70
2022/05/30 13:34:28;;;;;;;1.17;0.28;;;20.50;56.10;;;;;;5095611;28;20503;-69
2022/05/30 13:36:56;;;;;;;0.35;0.30;;;20.60;56.20;;;;;;5094507;28;20032;-69